Station: EBSP - 06/02/2023 01:51Z (il y a 16 minutes)
EBSP 060150Z AUTO 04003KT 350V100 8000 // BKN009/// BKN010/// M01/M01 Q1039
Vent du 040º - 3 kt (vent de direction variable de 350º à 100º)
Visibilité: 8000 m
Ciel 75% couvert à 900 pieds - Ciel 75% couvert à 1000 pieds
Température: -01ºC - Point de rosée: -01ºC - QNH: 1039 hPa